Terminal Aerodrome Forecast
Issued by NWS Pendleton, OR

Home | Current Version | Previous Version | Text Only | Print | Product List | Glossary On
Versions: 1 2 3 4 5 6 7 8 9 10 11 12 13 14
844
FTUS46 KPDT 210538
TAFPDT
TAF
KPDT 210538Z 2106/2206 25010KT P6SM BKN100
     FM210800 20011KT P6SM SCT070 BKN100
     FM211500 17007KT P6SM -RA BKN050 BKN100
     FM212300 25018G28KT P6SM VCSH BKN050 BKN100
     FM220200 22025G35KT P6SM SCT050 BKN100=

USA.gov is the U.S. government's official web portal to all federal, state and local government web resources and services.